createdAt,value
2017-11-09T00:00:20.458Z,0
2017-11-09T00:01:19.403Z,0
2017-11-09T00:02:19.740Z,0
2017-11-09T00:03:19.719Z,0
2017-11-09T00:04:19.025Z,0
2017-11-09T00:05:19.016Z,0
2017-11-09T00:06:19.389Z,0
2017-11-09T00:07:19.346Z,0
2017-11-09T00:08:19.662Z,0
2017-11-09T00:09:19.313Z,0
2017-11-09T00:10:18.954Z,0
2017-11-09T00:11:19.992Z,0
2017-11-09T00:12:18.924Z,0
2017-11-09T00:13:19.598Z,0
2017-11-09T00:14:19.953Z,0
2017-11-09T00:15:19.249Z,0
2017-11-09T00:16:19.574Z,0
2017-11-09T00:17:18.880Z,0
2017-11-09T00:18:19.551Z,0
2017-11-09T00:19:19.257Z,0
2017-11-09T00:20:20.210Z,0
2017-11-09T00:21:19.507Z,0
2017-11-09T00:22:19.497Z,0
2017-11-09T00:23:19.500Z,0
2017-11-09T00:24:19.476Z,0
2017-11-09T00:25:19.788Z,0
2017-11-09T00:26:19.804Z,0
2017-11-09T00:27:19.414Z,0
2017-11-09T00:28:19.403Z,0
2017-11-09T00:29:19.393Z,0
2017-11-09T00:30:19.396Z,0
2017-11-09T00:31:19.711Z,0
2017-11-09T00:32:19.373Z,0
2017-11-09T00:33:18.654Z,0
2017-11-09T00:34:18.653Z,0
2017-11-09T00:35:23.064Z,0
2017-11-09T00:36:19.674Z,0
2017-11-09T00:37:19.308Z,0
2017-11-09T00:38:18.963Z,0
2017-11-09T00:39:18.960Z,0
2017-11-09T00:40:19.251Z,0
2017-11-09T00:41:18.919Z,0
2017-11-09T00:42:19.289Z,0
2017-11-09T00:43:18.898Z,0
2017-11-09T00:44:18.516Z,0
2017-11-09T00:45:19.188Z,0
2017-11-09T00:46:19.185Z,0
2017-11-09T00:47:19.518Z,0
2017-11-09T00:48:19.174Z,0
2017-11-09T00:49:18.816Z,0
2017-11-09T00:50:18.786Z,0
2017-11-09T00:51:18.770Z,0
2017-11-09T00:52:19.100Z,0
2017-11-09T00:53:19.443Z,0
2017-11-09T00:54:19.288Z,0
2017-11-09T00:55:19.533Z,0
2017-11-09T00:56:18.705Z,0
2017-11-09T00:57:18.353Z,0
2017-11-09T00:58:20.337Z,0
2017-11-09T00:59:19.857Z,0
2017-11-09T01:00:19.490Z,0
2017-11-09T01:01:18.990Z,0
2017-11-09T01:02:18.629Z,0
2017-11-09T01:03:18.728Z,0
2017-11-09T01:04:18.638Z,0
2017-11-09T01:05:18.712Z,0
2017-11-09T01:06:19.469Z,0
2017-11-09T01:07:18.910Z,0
2017-11-09T01:08:18.676Z,0
2017-11-09T01:09:18.897Z,0
2017-11-09T01:10:19.230Z,0
2017-11-09T01:11:18.519Z,0
2017-11-09T01:12:19.454Z,0
2017-11-09T01:13:18.602Z,0
2017-11-09T01:14:18.236Z,0
2017-11-09T01:15:18.228Z,0
2017-11-09T01:16:18.450Z,0
2017-11-09T01:17:18.802Z,0
2017-11-09T01:18:18.786Z,0
2017-11-09T01:19:19.097Z,0
2017-11-09T01:20:18.075Z,0
2017-11-09T01:21:18.539Z,0
2017-11-09T01:22:18.437Z,0
2017-11-09T01:23:18.745Z,0
2017-11-09T01:24:18.369Z,0
2017-11-09T01:25:18.678Z,0
2017-11-09T01:26:18.666Z,0
2017-11-09T01:27:17.964Z,0
2017-11-09T01:28:18.988Z,0
2017-11-09T01:29:18.287Z,0
2017-11-09T01:30:18.294Z,0
2017-11-09T01:31:18.659Z,0
2017-11-09T01:32:18.637Z,0
2017-11-09T01:33:18.930Z,0
2017-11-09T01:34:18.568Z,0
2017-11-09T01:35:18.573Z,0
2017-11-09T01:36:18.209Z,0
2017-11-09T01:37:18.546Z,0
2017-11-09T01:38:18.168Z,0
2017-11-09T01:39:18.057Z,0
2017-11-09T01:40:18.827Z,0
2017-11-09T01:41:18.346Z,0
2017-11-09T01:42:18.125Z,0
2017-11-09T01:43:18.108Z,0
2017-11-09T01:44:18.819Z,0
2017-11-09T01:45:18.078Z,0
2017-11-09T01:46:19.114Z,0
2017-11-09T01:47:19.088Z,0
2017-11-09T01:48:18.383Z,0
2017-11-09T01:49:17.681Z,0
2017-11-09T01:50:18.700Z,0
2017-11-09T01:51:18.012Z,0
2017-11-09T01:52:17.995Z,0
2017-11-09T01:53:18.330Z,0
2017-11-09T01:54:18.329Z,0
2017-11-09T01:55:17.974Z,0
2017-11-09T01:56:17.936Z,0
2017-11-09T01:57:17.580Z,0
2017-11-09T01:58:18.269Z,0
2017-11-09T01:59:17.599Z,0
2017-11-09T02:00:17.888Z,0
2017-11-09T02:01:18.556Z,0
2017-11-09T02:02:18.214Z,0
2017-11-09T02:03:17.844Z,0
2017-11-09T02:04:18.179Z,0
2017-11-09T02:05:18.165Z,0
2017-11-09T02:06:18.170Z,0
2017-11-09T02:07:18.492Z,0
2017-11-09T02:08:18.125Z,0
2017-11-09T02:09:18.125Z,0
2017-11-09T02:10:18.121Z,0
2017-11-09T02:11:18.193Z,0
2017-11-09T02:12:20.339Z,0
2017-11-09T02:13:18.434Z,0
2017-11-09T02:14:18.409Z,0
2017-11-09T02:15:18.034Z,0
2017-11-09T02:16:18.031Z,0
2017-11-09T02:17:18.023Z,0
2017-11-09T02:18:18.344Z,0
2017-11-09T02:19:17.655Z,0
2017-11-09T02:20:17.996Z,0
2017-11-09T02:21:18.306Z,0
2017-11-09T02:22:17.606Z,0
2017-11-09T02:23:17.604Z,0
2017-11-09T02:24:17.967Z,0
2017-11-09T02:25:17.910Z,0
2017-11-09T02:26:17.207Z,0
2017-11-09T02:27:17.915Z,0
2017-11-09T02:28:18.224Z,0
2017-11-09T02:29:17.178Z,0
2017-11-09T02:30:18.192Z,0
2017-11-09T02:31:18.192Z,0
2017-11-09T02:32:17.492Z,0
2017-11-09T02:33:17.477Z,0
2017-11-09T02:34:17.451Z,0
2017-11-09T02:35:17.093Z,0
2017-11-09T02:36:17.099Z,0
2017-11-09T02:37:17.775Z,0
2017-11-09T02:38:17.421Z,0
2017-11-09T02:39:18.071Z,0
2017-11-09T02:40:17.375Z,0
2017-11-09T02:41:18.044Z,0
2017-11-09T02:42:17.347Z,0
2017-11-09T02:43:17.345Z,0
2017-11-09T02:44:17.670Z,0
2017-11-09T02:45:17.652Z,0
2017-11-09T02:46:18.335Z,0
2017-11-09T02:47:17.681Z,0
2017-11-09T02:48:17.958Z,0
2017-11-09T02:49:17.288Z,0
2017-11-09T02:50:17.934Z,0
2017-11-09T02:51:17.225Z,0
2017-11-09T02:52:17.913Z,0
2017-11-09T02:53:17.892Z,0
2017-11-09T02:54:17.218Z,0
2017-11-09T02:55:18.234Z,0
2017-11-09T02:56:17.527Z,0
2017-11-09T02:57:17.859Z,0
2017-11-09T02:58:18.178Z,0
2017-11-09T02:59:17.485Z,0
2017-11-09T03:00:17.485Z,0
2017-11-09T03:01:17.465Z,0
2017-11-09T03:02:17.089Z,0
2017-11-09T03:03:16.769Z,0
2017-11-09T03:04:17.754Z,0
2017-11-09T03:05:16.704Z,0
2017-11-09T03:06:17.088Z,0
2017-11-09T03:07:17.025Z,0
2017-11-09T03:08:17.354Z,0
2017-11-09T03:09:16.992Z,0
2017-11-09T03:10:17.337Z,0
2017-11-09T03:11:17.312Z,0
2017-11-09T03:12:18.043Z,0
2017-11-09T03:13:16.946Z,0
2017-11-09T03:14:16.930Z,0
2017-11-09T03:15:17.270Z,0
2017-11-09T03:16:17.602Z,0
2017-11-09T03:17:17.261Z,0
2017-11-09T03:18:16.876Z,0
2017-11-09T03:19:16.883Z,0
2017-11-09T03:20:17.203Z,0
2017-11-09T03:21:17.183Z,0
2017-11-09T03:22:17.175Z,0
2017-11-09T03:23:17.169Z,0
2017-11-09T03:24:17.502Z,0
2017-11-09T03:25:16.796Z,0
2017-11-09T03:26:17.463Z,0
2017-11-09T03:27:17.130Z,0
2017-11-09T03:28:17.452Z,0
2017-11-09T03:29:17.078Z,0
2017-11-09T03:30:17.550Z,0
2017-11-09T03:31:17.447Z,0
2017-11-09T03:32:17.040Z,0
2017-11-09T03:33:17.363Z,0
2017-11-09T03:34:17.358Z,0
2017-11-09T03:35:16.662Z,0
2017-11-09T03:36:17.353Z,0
2017-11-09T03:37:16.285Z,0
2017-11-09T03:38:16.970Z,0
2017-11-09T03:39:17.288Z,0
2017-11-09T03:40:16.944Z,0
2017-11-09T03:41:16.575Z,0
2017-11-09T03:42:16.907Z,0
2017-11-09T03:43:16.582Z,0
2017-11-09T03:44:16.878Z,0
2017-11-09T03:45:16.884Z,0
2017-11-09T03:46:16.164Z,0
2017-11-09T03:47:16.160Z,0
2017-11-09T03:48:16.480Z,0
2017-11-09T03:49:16.857Z,0
2017-11-09T03:50:16.467Z,0
2017-11-09T03:51:16.803Z,0
2017-11-09T03:52:17.124Z,0
2017-11-09T03:53:16.777Z,0
2017-11-09T03:54:16.744Z,0
2017-11-09T03:55:17.104Z,0
2017-11-09T03:56:16.379Z,0
2017-11-09T03:57:17.043Z,0
2017-11-09T03:58:16.708Z,0
2017-11-09T03:59:16.686Z,0
2017-11-09T04:00:16.670Z,0
2017-11-09T04:01:16.651Z,0
2017-11-09T04:02:16.659Z,0
2017-11-09T04:03:16.286Z,0
2017-11-09T04:04:16.280Z,0
2017-11-09T04:05:16.603Z,0
2017-11-09T04:06:16.586Z,0
2017-11-09T04:07:16.578Z,0
2017-11-09T04:08:16.224Z,0
2017-11-09T04:09:16.207Z,0
2017-11-09T04:10:16.535Z,0
2017-11-09T04:11:16.864Z,0
2017-11-09T04:12:16.162Z,0
2017-11-09T04:13:16.857Z,0
2017-11-09T04:14:16.480Z,0
2017-11-09T04:15:16.821Z,0
2017-11-09T04:16:16.120Z,0
2017-11-09T04:17:16.100Z,0
2017-11-09T04:18:16.150Z,0
2017-11-09T04:19:16.443Z,0
2017-11-09T04:20:16.749Z,0
2017-11-09T04:21:17.071Z,0
2017-11-09T04:22:16.048Z,0
2017-11-09T04:23:16.714Z,0
2017-11-09T04:24:16.344Z,0
2017-11-09T04:25:16.012Z,0
2017-11-09T04:26:15.994Z,0
2017-11-09T04:27:15.625Z,0
2017-11-09T04:28:15.973Z,0
2017-11-09T04:29:15.941Z,0
2017-11-09T04:30:16.652Z,0
2017-11-09T04:31:16.602Z,0
2017-11-09T04:32:16.606Z,0
2017-11-09T04:33:16.591Z,0
2017-11-09T04:34:16.584Z,0
2017-11-09T04:35:15.875Z,0
2017-11-09T04:36:15.506Z,0
2017-11-09T04:37:16.199Z,0
2017-11-09T04:38:15.816Z,0
2017-11-09T04:39:15.806Z,0
2017-11-09T04:40:16.133Z,0
2017-11-09T04:41:15.777Z,0
2017-11-09T04:42:16.131Z,0
2017-11-09T04:43:15.757Z,0
2017-11-09T04:44:15.405Z,0
2017-11-09T04:45:16.407Z,0
2017-11-09T04:46:16.055Z,0
2017-11-09T04:47:15.710Z,0
2017-11-09T04:48:15.680Z,0
2017-11-09T04:49:15.330Z,0
2017-11-09T04:50:16.023Z,0
2017-11-09T04:51:16.333Z,0
2017-11-09T04:52:15.651Z,0
2017-11-09T04:53:16.313Z,0
2017-11-09T04:54:15.950Z,0
2017-11-09T04:55:15.967Z,0
2017-11-09T04:56:15.916Z,0
2017-11-09T04:57:15.562Z,0
2017-11-09T04:58:15.911Z,0
2017-11-09T04:59:15.892Z,0
2017-11-09T05:00:15.521Z,0
2017-11-09T05:01:15.879Z,0
2017-11-09T05:02:15.491Z,0
2017-11-09T05:03:16.507Z,0
2017-11-09T05:04:15.487Z,0
2017-11-09T05:05:16.523Z,0
2017-11-09T05:06:16.489Z,0
2017-11-09T05:07:15.424Z,0
2017-11-09T05:08:15.799Z,0
2017-11-09T05:09:15.744Z,0
2017-11-09T05:10:15.742Z,0
2017-11-09T05:11:15.033Z,0
2017-11-09T05:12:16.045Z,0
2017-11-09T05:13:16.027Z,0
2017-11-09T05:14:15.680Z,0
2017-11-09T05:15:15.333Z,0
2017-11-09T05:16:15.722Z,0
2017-11-09T05:17:15.650Z,0
2017-11-09T05:18:15.279Z,0
2017-11-09T05:19:15.652Z,0
2017-11-09T05:20:15.249Z,0
2017-11-09T05:21:15.255Z,0
2017-11-09T05:22:15.569Z,0
2017-11-09T05:23:15.211Z,0
2017-11-09T05:24:15.195Z,0
2017-11-09T05:25:15.180Z,0
2017-11-09T05:26:15.521Z,0
2017-11-09T05:27:14.824Z,0
2017-11-09T05:28:15.511Z,0
2017-11-09T05:29:15.497Z,0
2017-11-09T05:30:15.807Z,0
2017-11-09T05:31:15.099Z,0
2017-11-09T05:32:15.088Z,0
2017-11-09T05:33:15.082Z,0
2017-11-09T05:34:15.412Z,0
2017-11-09T05:35:14.707Z,0
2017-11-09T05:36:15.738Z,0
2017-11-09T05:37:15.378Z,0
2017-11-09T05:38:15.359Z,0
2017-11-09T05:39:15.033Z,0
2017-11-09T05:40:15.343Z,0
2017-11-09T05:41:14.969Z,0
2017-11-09T05:42:14.959Z,0
2017-11-09T05:43:15.642Z,0
2017-11-09T05:44:14.951Z,0
2017-11-09T05:45:15.639Z,0
2017-11-09T05:46:15.249Z,0
2017-11-09T05:47:14.913Z,0
2017-11-09T05:48:15.240Z,0
2017-11-09T05:49:15.238Z,0
2017-11-09T05:50:15.216Z,0
2017-11-09T05:51:15.220Z,0
2017-11-09T05:52:14.481Z,0
2017-11-09T05:53:15.155Z,0
2017-11-09T05:54:15.143Z,0
2017-11-09T05:55:15.469Z,0
2017-11-09T05:56:14.775Z,0
2017-11-09T05:57:14.754Z,0
2017-11-09T05:58:15.115Z,0
2017-11-09T05:59:14.751Z,0
2017-11-09T06:00:15.076Z,0
2017-11-09T06:01:15.401Z,0
2017-11-09T06:02:14.696Z,0
2017-11-09T06:03:15.047Z,0
2017-11-09T06:04:14.663Z,0
2017-11-09T06:05:14.651Z,0
2017-11-09T06:06:14.295Z,0
2017-11-09T06:07:15.322Z,0
2017-11-09T06:08:14.607Z,0
2017-11-09T06:09:23.204Z,0
2017-11-09T06:10:15.283Z,0
2017-11-09T06:11:14.929Z,0
2017-11-09T06:12:14.576Z,0
2017-11-09T06:13:14.888Z,0
2017-11-09T06:14:14.873Z,0
2017-11-09T06:15:15.201Z,0
2017-11-09T06:16:14.840Z,0
2017-11-09T06:17:15.170Z,0
2017-11-09T06:18:15.186Z,0
2017-11-09T06:19:14.129Z,0
2017-11-09T06:20:14.473Z,0
2017-11-09T06:21:14.091Z,0
2017-11-09T06:22:14.778Z,0
2017-11-09T06:23:14.412Z,0
2017-11-09T06:24:14.752Z,0
2017-11-09T06:25:14.754Z,0
2017-11-09T06:26:14.774Z,0
2017-11-09T06:27:14.373Z,0
2017-11-09T06:28:14.679Z,0
2017-11-09T06:29:15.027Z,0
2017-11-09T06:30:14.318Z,0
2017-11-09T06:31:14.660Z,0
2017-11-09T06:32:14.979Z,5
2017-11-09T06:33:14.281Z,5
2017-11-09T06:34:14.943Z,5
2017-11-09T06:35:14.251Z,5
2017-11-09T06:36:14.243Z,5
2017-11-09T06:37:14.902Z,5
2017-11-09T06:38:13.880Z,5
2017-11-09T06:39:14.880Z,5
2017-11-09T06:40:14.180Z,5
2017-11-09T06:41:14.172Z,5
2017-11-09T06:42:14.863Z,10
2017-11-09T06:43:14.148Z,10
2017-11-09T06:44:14.471Z,10
2017-11-09T06:45:14.112Z,10
2017-11-09T06:46:14.101Z,10
2017-11-09T06:47:14.113Z,10
2017-11-09T06:48:14.453Z,10
2017-11-09T06:49:14.074Z,10
2017-11-09T06:50:14.735Z,10
2017-11-09T06:51:14.043Z,10
2017-11-09T06:52:14.388Z,15
2017-11-09T06:53:14.692Z,15
2017-11-09T06:54:14.690Z,15
2017-11-09T06:55:14.685Z,20
2017-11-09T06:56:13.966Z,20
2017-11-09T06:57:14.296Z,15
2017-11-09T06:58:14.710Z,15
2017-11-09T06:59:14.631Z,15
2017-11-09T07:00:22.116Z,15
2017-11-09T07:01:13.901Z,15
2017-11-09T07:02:13.904Z,15
2017-11-09T07:03:14.224Z,15
2017-11-09T07:04:13.866Z,15
2017-11-09T07:05:13.509Z,15
2017-11-09T07:06:13.840Z,15
2017-11-09T07:07:14.506Z,15
2017-11-09T07:08:14.151Z,15
2017-11-09T07:09:14.144Z,15
2017-11-09T07:10:14.124Z,15
2017-11-09T07:11:14.462Z,15
2017-11-09T07:12:13.773Z,15
2017-11-09T07:13:14.090Z,15
2017-11-09T07:14:14.412Z,15
2017-11-09T07:15:14.064Z,15
2017-11-09T07:16:13.711Z,15
2017-11-09T07:17:13.350Z,15
2017-11-09T07:18:14.363Z,15
2017-11-09T07:19:13.685Z,15
2017-11-09T07:20:14.686Z,15
2017-11-09T07:21:14.001Z,20
2017-11-09T07:22:14.307Z,20
2017-11-09T07:23:13.616Z,20
2017-11-09T07:24:13.614Z,20
2017-11-09T07:25:14.293Z,20
2017-11-09T07:26:13.229Z,20
2017-11-09T07:27:13.569Z,20
2017-11-09T07:28:14.231Z,20
2017-11-09T07:29:13.911Z,20
2017-11-09T07:30:14.221Z,20
2017-11-09T07:31:13.877Z,15
2017-11-09T07:32:13.848Z,20
2017-11-09T07:33:13.501Z,15
2017-11-09T07:34:13.815Z,15
2017-11-09T07:35:13.128Z,15
2017-11-09T07:36:13.101Z,15
2017-11-09T07:37:13.770Z,15
2017-11-09T07:38:13.416Z,15
2017-11-09T07:39:13.095Z,15
2017-11-09T07:40:14.103Z,15
2017-11-09T07:41:14.067Z,15
2017-11-09T07:42:13.700Z,20
2017-11-09T07:43:13.015Z,20
2017-11-09T07:44:13.674Z,20
2017-11-09T07:45:12.979Z,20
2017-11-09T07:46:12.971Z,20
2017-11-09T07:47:13.642Z,20
2017-11-09T07:48:14.333Z,20
2017-11-09T07:49:13.610Z,20
2017-11-09T07:50:13.937Z,20
2017-11-09T07:51:12.900Z,20
2017-11-09T07:52:14.274Z,25
2017-11-09T07:53:13.603Z,25
2017-11-09T07:54:13.552Z,25
2017-11-09T07:55:13.529Z,30
2017-11-09T07:56:13.878Z,30
2017-11-09T07:57:13.509Z,30
2017-11-09T07:58:13.519Z,30
2017-11-09T07:59:13.488Z,30
2017-11-09T08:00:13.481Z,30
2017-11-09T08:01:13.128Z,30
2017-11-09T08:02:13.451Z,30
2017-11-09T08:03:13.420Z,30
2017-11-09T08:04:13.083Z,30
2017-11-09T08:05:13.400Z,30
2017-11-09T08:06:13.054Z,25
2017-11-09T08:07:13.045Z,30
2017-11-09T08:08:13.074Z,30
2017-11-09T08:09:13.012Z,30
2017-11-09T08:10:12.986Z,35
2017-11-09T08:11:13.320Z,40
2017-11-09T08:12:12.618Z,40
2017-11-09T08:13:13.642Z,45
2017-11-09T08:14:13.627Z,45
2017-11-09T08:15:13.279Z,40
2017-11-09T08:16:13.256Z,35
2017-11-09T08:17:13.587Z,30
2017-11-09T08:18:12.887Z,30
2017-11-09T08:19:13.210Z,30
2017-11-09T08:20:13.910Z,30
2017-11-09T08:21:12.851Z,30
2017-11-09T08:22:13.186Z,35
2017-11-09T08:23:13.177Z,40
2017-11-09T08:24:12.800Z,40
2017-11-09T08:25:13.491Z,35
2017-11-09T08:26:13.124Z,35
2017-11-09T08:27:12.792Z,40
2017-11-09T08:28:13.110Z,35
2017-11-09T08:29:13.087Z,35
2017-11-09T08:30:13.107Z,45
2017-11-09T08:31:13.621Z,45
2017-11-09T08:32:12.694Z,45
2017-11-09T08:33:13.056Z,50
2017-11-09T08:34:13.386Z,45
2017-11-09T08:35:13.692Z,40
2017-11-09T08:36:12.646Z,40
2017-11-09T08:37:12.968Z,40
2017-11-09T08:38:13.327Z,40
2017-11-09T08:39:12.267Z,40
2017-11-09T08:40:12.601Z,40
2017-11-09T08:41:13.259Z,40
2017-11-09T08:42:12.922Z,40
2017-11-09T08:43:12.549Z,40
2017-11-09T08:44:12.195Z,45
2017-11-09T08:45:12.870Z,40
2017-11-09T08:46:12.513Z,40
2017-11-09T08:47:12.839Z,45
2017-11-09T08:48:12.831Z,55
2017-11-09T08:49:12.484Z,50
2017-11-09T08:50:12.125Z,45
2017-11-09T08:51:13.136Z,45
2017-11-09T08:52:12.798Z,55
2017-11-09T08:53:13.123Z,60
2017-11-09T08:54:12.412Z,55
2017-11-09T08:55:12.758Z,55
2017-11-09T08:56:12.724Z,45
2017-11-09T08:57:12.722Z,50
2017-11-09T08:58:12.354Z,55
2017-11-09T08:59:13.037Z,60
2017-11-09T09:00:13.407Z,65
2017-11-09T09:01:11.985Z,70
2017-11-09T09:02:12.649Z,70
2017-11-09T09:03:12.655Z,70
2017-11-09T09:04:12.961Z,60
2017-11-09T09:05:12.282Z,60
2017-11-09T09:06:12.592Z,70
2017-11-09T09:07:12.614Z,70
2017-11-09T09:08:12.942Z,65
2017-11-09T09:09:12.212Z,65
2017-11-09T09:10:12.889Z,65
2017-11-09T09:11:12.525Z,70
2017-11-09T09:12:12.199Z,70
2017-11-09T09:13:11.821Z,65
2017-11-09T09:14:12.534Z,70
2017-11-09T09:15:12.133Z,75
2017-11-09T09:16:12.469Z,70
2017-11-09T09:17:12.109Z,70
2017-11-09T09:18:12.794Z,70
2017-11-09T09:19:12.774Z,70
2017-11-09T09:20:12.070Z,75
2017-11-09T09:21:12.451Z,75
2017-11-09T09:22:12.399Z,75
2017-11-09T09:23:12.369Z,70
2017-11-09T09:24:12.703Z,80
2017-11-09T09:25:12.684Z,85
2017-11-09T09:26:12.355Z,85
2017-11-09T09:27:12.352Z,85
2017-11-09T09:28:11.965Z,85
2017-11-09T09:29:11.963Z,80
2017-11-09T09:30:12.625Z,85
2017-11-09T09:31:12.283Z,80
2017-11-09T09:32:11.924Z,80
2017-11-09T09:33:12.587Z,80
2017-11-09T09:34:11.887Z,75
2017-11-09T09:35:11.895Z,70
2017-11-09T09:36:12.552Z,70
2017-11-09T09:37:11.855Z,70
2017-11-09T09:38:12.543Z,70
2017-11-09T09:39:12.168Z,70
2017-11-09T09:40:12.497Z,70
2017-11-09T09:41:12.489Z,70
2017-11-09T09:42:12.126Z,70
2017-11-09T09:43:12.482Z,65
2017-11-09T09:44:12.119Z,65
2017-11-09T09:45:11.756Z,60
2017-11-09T09:46:12.451Z,70
2017-11-09T09:47:11.746Z,70
2017-11-09T09:48:12.410Z,55
2017-11-09T09:49:11.355Z,55
2017-11-09T09:50:11.345Z,55
2017-11-09T09:51:11.686Z,55
2017-11-09T09:52:12.364Z,60
2017-11-09T09:53:11.301Z,55
2017-11-09T09:54:12.000Z,50
2017-11-09T09:55:11.627Z,50
2017-11-09T09:56:11.268Z,60
2017-11-09T09:57:11.597Z,60
2017-11-09T09:58:11.935Z,60
2017-11-09T09:59:11.576Z,65
2017-11-09T10:00:11.915Z,65
2017-11-09T10:01:12.241Z,60
2017-11-09T10:02:11.202Z,60
2017-11-09T10:03:12.576Z,60
2017-11-09T10:04:11.857Z,50
2017-11-09T10:05:12.200Z,45
2017-11-09T10:06:11.483Z,45
2017-11-09T10:07:19.448Z,40
2017-11-09T10:08:11.796Z,45
2017-11-09T10:09:11.446Z,40
2017-11-09T10:10:11.450Z,40
2017-11-09T10:11:11.773Z,35
2017-11-09T10:12:12.101Z,35
2017-11-09T10:13:12.420Z,40
2017-11-09T10:14:12.102Z,40
2017-11-09T10:15:11.366Z,40
2017-11-09T10:16:11.701Z,40
2017-11-09T10:17:10.998Z,45
2017-11-09T10:18:11.331Z,50
2017-11-09T10:19:11.668Z,60
2017-11-09T10:20:11.325Z,60
2017-11-09T10:21:11.976Z,65
2017-11-09T10:22:11.632Z,65
2017-11-09T10:23:10.942Z,60
2017-11-09T10:24:11.597Z,65
2017-11-09T10:25:11.594Z,65
2017-11-09T10:26:11.578Z,70
2017-11-09T10:27:11.908Z,70
2017-11-09T10:28:11.542Z,65
2017-11-09T10:29:11.221Z,70
2017-11-09T10:30:11.537Z,85
2017-11-09T10:31:12.203Z,90
2017-11-09T10:32:11.503Z,90
2017-11-09T10:33:11.817Z,85
2017-11-09T10:34:11.839Z,85
2017-11-09T10:35:11.465Z,90
2017-11-09T10:36:11.451Z,90
2017-11-09T10:37:11.085Z,90
2017-11-09T10:38:11.755Z,90
2017-11-09T10:39:11.425Z,90
2017-11-09T10:40:11.749Z,90
2017-11-09T10:41:11.040Z,90
2017-11-09T10:42:11.017Z,85
2017-11-09T10:43:11.726Z,95
2017-11-09T10:44:10.691Z,90
2017-11-09T10:45:12.008Z,100
2017-11-09T10:46:11.690Z,100
2017-11-09T10:47:12.001Z,95
2017-11-09T10:48:11.284Z,85
2017-11-09T10:49:10.929Z,105
2017-11-09T10:50:11.617Z,115
2017-11-09T10:51:11.230Z,115
2017-11-09T10:52:11.427Z,115
2017-11-09T10:53:11.478Z,115
2017-11-09T10:54:11.394Z,110
2017-11-09T10:55:11.199Z,105
2017-11-09T10:56:10.889Z,115
2017-11-09T10:57:10.888Z,110
2017-11-09T10:58:11.239Z,105
2017-11-09T10:59:10.828Z,105
2017-11-09T11:00:11.200Z,100
2017-11-09T11:01:11.237Z,100
2017-11-09T11:02:11.622Z,100
2017-11-09T11:03:11.460Z,115
2017-11-09T11:04:11.093Z,120
2017-11-09T11:05:11.427Z,115
2017-11-09T11:06:10.738Z,110
2017-11-09T11:07:11.047Z,95
2017-11-09T11:08:11.041Z,80
2017-11-09T11:09:11.042Z,80
2017-11-09T11:10:11.405Z,75
2017-11-09T11:11:11.347Z,75
2017-11-09T11:12:11.857Z,75
2017-11-09T11:13:10.998Z,95
2017-11-09T11:14:10.985Z,100
2017-11-09T11:15:10.614Z,115
2017-11-09T11:16:10.255Z,120
2017-11-09T11:17:10.958Z,120
2017-11-09T11:18:10.233Z,120
2017-11-09T11:19:10.903Z,115
2017-11-09T11:20:10.564Z,105
2017-11-09T11:21:10.878Z,110
2017-11-09T11:22:10.890Z,120
2017-11-09T11:23:10.848Z,125
2017-11-09T11:24:11.240Z,120
2017-11-09T11:25:10.494Z,100
2017-11-09T11:26:11.180Z,95
2017-11-09T11:27:10.825Z,105
2017-11-09T11:28:10.790Z,85
2017-11-09T11:29:10.433Z,80
2017-11-09T11:30:10.442Z,85
2017-11-09T11:31:10.761Z,80
2017-11-09T11:32:10.788Z,80
2017-11-09T11:33:10.723Z,70
2017-11-09T11:34:10.392Z,60
2017-11-09T11:35:11.446Z,55
2017-11-09T11:36:10.359Z,60
2017-11-09T11:37:09.995Z,60
2017-11-09T11:38:10.667Z,60
2017-11-09T11:39:10.316Z,75
2017-11-09T11:40:10.299Z,85
2017-11-09T11:41:10.674Z,80
2017-11-09T11:42:10.998Z,80
2017-11-09T11:43:10.259Z,85
2017-11-09T11:44:10.595Z,85
2017-11-09T11:45:10.602Z,85
2017-11-09T11:46:10.920Z,85
2017-11-09T11:47:10.896Z,105
2017-11-09T11:48:10.895Z,110
2017-11-09T11:49:10.580Z,95
2017-11-09T11:50:10.172Z,85
2017-11-09T11:51:10.171Z,90
2017-11-09T11:52:10.498Z,90
2017-11-09T11:53:10.484Z,120
2017-11-09T11:54:10.816Z,105
2017-11-09T11:55:10.470Z,110
2017-11-09T11:56:10.465Z,105
2017-11-09T11:57:10.102Z,110
2017-11-09T11:58:10.797Z,105
2017-11-09T11:59:10.091Z,100
2017-11-09T12:00:10.050Z,90
2017-11-09T12:01:10.054Z,95
2017-11-09T12:02:10.715Z,100
2017-11-09T12:03:10.356Z,100
2017-11-09T12:04:11.038Z,120
2017-11-09T12:05:10.002Z,125
2017-11-09T12:06:10.328Z,120
2017-11-09T12:07:10.338Z,115
2017-11-09T12:08:09.971Z,110
2017-11-09T12:09:10.649Z,110
2017-11-09T12:10:10.270Z,135
2017-11-09T12:11:10.295Z,140
2017-11-09T12:12:09.916Z,115
2017-11-09T12:13:10.579Z,90
2017-11-09T12:14:09.885Z,85
2017-11-09T12:15:10.230Z,90
2017-11-09T12:16:09.862Z,85
2017-11-09T12:17:10.219Z,90
2017-11-09T12:18:09.832Z,100
2017-11-09T12:19:09.823Z,110
2017-11-09T12:20:10.532Z,115
2017-11-09T12:21:09.819Z,110
2017-11-09T12:22:09.789Z,110
2017-11-09T12:23:10.815Z,110
2017-11-09T12:24:10.817Z,100
2017-11-09T12:25:10.091Z,90
2017-11-09T12:26:09.748Z,85
2017-11-09T12:27:10.409Z,75
2017-11-09T12:28:09.717Z,75
2017-11-09T12:29:09.357Z,75
2017-11-09T12:30:09.727Z,75
2017-11-09T12:31:09.720Z,85
2017-11-09T12:32:10.358Z,90
2017-11-09T12:33:09.653Z,90
2017-11-09T12:34:10.326Z,85
2017-11-09T12:35:10.334Z,85
2017-11-09T12:36:09.962Z,85
2017-11-09T12:37:09.949Z,90
2017-11-09T12:38:09.961Z,115
2017-11-09T12:39:09.922Z,140
2017-11-09T12:40:09.908Z,130
2017-11-09T12:41:09.585Z,120
2017-11-09T12:42:10.230Z,110
2017-11-09T12:43:09.211Z,105
2017-11-09T12:44:09.963Z,105
2017-11-09T12:45:09.853Z,95
2017-11-09T12:46:10.185Z,90
2017-11-09T12:47:09.862Z,80
2017-11-09T12:48:10.166Z,70
2017-11-09T12:49:10.181Z,65
2017-11-09T12:50:09.447Z,65
2017-11-09T12:51:09.434Z,95
2017-11-09T12:52:09.432Z,110
2017-11-09T12:53:10.128Z,75
2017-11-09T12:54:10.088Z,65
2017-11-09T12:55:09.732Z,70
2017-11-09T12:56:09.722Z,85
2017-11-09T12:57:09.370Z,80
2017-11-09T12:58:10.051Z,65
2017-11-09T12:59:09.686Z,60
2017-11-09T13:00:09.703Z,80
2017-11-09T13:01:10.049Z,70
2017-11-09T13:02:09.664Z,75
2017-11-09T13:03:10.010Z,75
2017-11-09T13:04:09.619Z,70
2017-11-09T13:05:09.955Z,65
2017-11-09T13:06:09.628Z,60
2017-11-09T13:07:09.939Z,60
2017-11-09T13:08:09.594Z,70
2017-11-09T13:09:09.580Z,75
2017-11-09T13:10:08.862Z,75
2017-11-09T13:11:09.884Z,90
2017-11-09T13:12:09.524Z,95
2017-11-09T13:13:09.910Z,105
2017-11-09T13:14:09.502Z,115
2017-11-09T13:15:09.831Z,115
2017-11-09T13:16:09.832Z,110
2017-11-09T13:17:09.814Z,95
2017-11-09T13:18:09.108Z,85
2017-11-09T13:19:09.450Z,70
2017-11-09T13:20:08.744Z,60
2017-11-09T13:21:09.094Z,60
2017-11-09T13:22:09.081Z,55
2017-11-09T13:23:08.705Z,55
2017-11-09T13:24:09.383Z,55
2017-11-09T13:25:09.040Z,70
2017-11-09T13:26:09.366Z,85
2017-11-09T13:27:09.347Z,90
2017-11-09T13:28:08.989Z,95
2017-11-09T13:29:09.320Z,100
2017-11-09T13:30:10.022Z,95
2017-11-09T13:31:09.645Z,105
2017-11-09T13:32:09.294Z,110
2017-11-09T13:33:09.611Z,100
2017-11-09T13:34:08.921Z,95
2017-11-09T13:35:09.244Z,80
2017-11-09T13:36:09.573Z,65
2017-11-09T13:37:09.561Z,55
2017-11-09T13:38:09.581Z,55
2017-11-09T13:39:09.204Z,50
2017-11-09T13:40:09.188Z,40
2017-11-09T13:41:09.176Z,40
2017-11-09T13:42:09.159Z,40
2017-11-09T13:43:09.893Z,35
2017-11-09T13:44:09.479Z,35
2017-11-09T13:45:09.488Z,35
2017-11-09T13:46:08.782Z,40
2017-11-09T13:47:08.789Z,40
2017-11-09T13:48:09.111Z,35
2017-11-09T13:49:08.763Z,25
2017-11-09T13:50:08.729Z,20
2017-11-09T13:51:08.710Z,20
2017-11-09T13:52:08.708Z,20
2017-11-09T13:53:09.034Z,20
2017-11-09T13:54:09.031Z,20
2017-11-09T13:55:09.006Z,15
2017-11-09T13:56:09.024Z,15
2017-11-09T13:57:08.976Z,15
2017-11-09T13:58:08.642Z,15
2017-11-09T13:59:08.950Z,15
2017-11-09T14:00:08.978Z,15
2017-11-09T14:01:08.974Z,15
2017-11-09T14:02:08.922Z,10
2017-11-09T14:03:08.565Z,10
2017-11-09T14:04:08.205Z,10
2017-11-09T14:05:08.900Z,10
2017-11-09T14:06:08.530Z,10
2017-11-09T14:07:08.860Z,10
2017-11-09T14:08:09.526Z,5
2017-11-09T14:09:09.177Z,5
2017-11-09T14:10:08.827Z,5
2017-11-09T14:11:08.465Z,10
2017-11-09T14:12:08.791Z,10
2017-11-09T14:13:08.781Z,10
2017-11-09T14:14:08.782Z,10
2017-11-09T14:15:09.107Z,10
2017-11-09T14:16:09.094Z,10
2017-11-09T14:17:08.733Z,10
2017-11-09T14:18:09.063Z,10
2017-11-09T14:19:08.705Z,10
2017-11-09T14:20:08.355Z,10
2017-11-09T14:21:08.683Z,10
2017-11-09T14:22:09.022Z,5
2017-11-09T14:23:08.311Z,5
2017-11-09T14:24:08.306Z,5
2017-11-09T14:25:08.646Z,5
2017-11-09T14:26:08.291Z,5
2017-11-09T14:27:08.613Z,5